sensor_id;sensor_type;location;lat;lon;timestamp;pressure;altitude;pressure_sealevel;temperature;humidity
20971;BME280;10644;48.834;10.088;2023-12-07T00:00:01;96900.69;;;7.44;63.52
20971;BME280;10644;48.834;10.088;2023-12-07T00:02:26;96901.72;;;7.38;63.33
20971;BME280;10644;48.834;10.088;2023-12-07T00:04:54;96895.63;;;7.42;63.79
20971;BME280;10644;48.834;10.088;2023-12-07T00:07:19;96897.19;;;7.46;63.20
20971;BME280;10644;48.834;10.088;2023-12-07T00:09:47;96902.38;;;7.43;63.13
20971;BME280;10644;48.834;10.088;2023-12-07T00:12:12;96895.44;;;7.47;63.40
20971;BME280;10644;48.834;10.088;2023-12-07T00:14:38;96901.97;;;7.32;62.99
20971;BME280;10644;48.834;10.088;2023-12-07T00:17:03;96908.78;;;6.86;63.92
20971;BME280;10644;48.834;10.088;2023-12-07T00:19:28;96904.53;;;6.86;64.48
20971;BME280;10644;48.834;10.088;2023-12-07T00:21:54;96914.84;;;7.06;64.76
20971;BME280;10644;48.834;10.088;2023-12-07T00:24:19;96911.06;;;7.16;63.78
20971;BME280;10644;48.834;10.088;2023-12-07T00:26:44;96911.56;;;7.26;63.61
20971;BME280;10644;48.834;10.088;2023-12-07T00:29:09;96919.69;;;7.35;63.31
20971;BME280;10644;48.834;10.088;2023-12-07T00:31:35;96923.44;;;7.48;63.25
20971;BME280;10644;48.834;10.088;2023-12-07T00:34:00;96916.53;;;7.50;63.06
20971;BME280;10644;48.834;10.088;2023-12-07T00:36:25;96916.38;;;7.55;62.98
20971;BME280;10644;48.834;10.088;2023-12-07T00:38:51;96917.09;;;7.58;62.62
20971;BME280;10644;48.834;10.088;2023-12-07T00:41:18;96907.72;;;7.59;62.69
20971;BME280;10644;48.834;10.088;2023-12-07T00:43:44;96917.63;;;7.66;63.31
20971;BME280;10644;48.834;10.088;2023-12-07T00:46:10;96919.28;;;7.67;63.09
20971;BME280;10644;48.834;10.088;2023-12-07T00:48:37;96915.97;;;7.65;62.32
20971;BME280;10644;48.834;10.088;2023-12-07T00:51:03;96919.66;;;7.58;62.12
20971;BME280;10644;48.834;10.088;2023-12-07T00:53:28;96918.78;;;7.15;62.45
20971;BME280;10644;48.834;10.088;2023-12-07T00:55:54;96934.66;;;6.98;63.44
20971;BME280;10644;48.834;10.088;2023-12-07T00:58:19;96931.69;;;6.86;64.00
20971;BME280;10644;48.834;10.088;2023-12-07T01:00:47;96933.97;;;6.93;64.56
20971;BME280;10644;48.834;10.088;2023-12-07T01:03:14;96942.72;;;7.09;63.87
20971;BME280;10644;48.834;10.088;2023-12-07T01:05:40;96940.75;;;7.17;63.85
20971;BME280;10644;48.834;10.088;2023-12-07T01:08:07;96939.63;;;7.24;63.67
20971;BME280;10644;48.834;10.088;2023-12-07T01:10:32;96942.84;;;7.29;62.95
20971;BME280;10644;48.834;10.088;2023-12-07T01:12:58;96932.72;;;7.28;62.24
20971;BME280;10644;48.834;10.088;2023-12-07T01:15:23;96941.16;;;7.28;62.67
20971;BME280;10644;48.834;10.088;2023-12-07T01:17:48;96941.06;;;7.31;62.65
20971;BME280;10644;48.834;10.088;2023-12-07T01:20:14;96940.16;;;7.32;62.64
20971;BME280;10644;48.834;10.088;2023-12-07T01:22:40;96946.69;;;7.39;62.57
20971;BME280;10644;48.834;10.088;2023-12-07T01:25:06;96944.13;;;7.39;62.14
20971;BME280;10644;48.834;10.088;2023-12-07T01:27:32;96941.91;;;7.32;62.08
20971;BME280;10644;48.834;10.088;2023-12-07T01:29:57;96959.66;;;6.87;62.78
20971;BME280;10644;48.834;10.088;2023-12-07T01:32:22;96958.84;;;6.87;63.31
20971;BME280;10644;48.834;10.088;2023-12-07T01:34:50;96957.56;;;6.98;63.36
20971;BME280;10644;48.834;10.088;2023-12-07T01:37:15;96958.06;;;7.08;62.98
20971;BME280;10644;48.834;10.088;2023-12-07T01:39:43;96963.69;;;7.17;62.87
20971;BME280;10644;48.834;10.088;2023-12-07T01:42:09;96969.25;;;7.27;63.01
20971;BME280;10644;48.834;10.088;2023-12-07T01:44:37;96972.53;;;7.30;62.80
20971;BME280;10644;48.834;10.088;2023-12-07T01:47:02;96982.13;;;7.22;62.48
20971;BME280;10644;48.834;10.088;2023-12-07T01:49:28;96993.13;;;7.01;62.64
20971;BME280;10644;48.834;10.088;2023-12-07T01:51:54;96989.06;;;6.71;62.88
20971;BME280;10644;48.834;10.088;2023-12-07T01:54:20;96998.38;;;6.72;63.54
20971;BME280;10644;48.834;10.088;2023-12-07T01:56:46;96992.19;;;6.79;63.17
20971;BME280;10644;48.834;10.088;2023-12-07T01:59:12;96985.03;;;6.90;63.42
20971;BME280;10644;48.834;10.088;2023-12-07T02:01:37;96977.94;;;6.98;63.12
20971;BME280;10644;48.834;10.088;2023-12-07T02:04:03;96982.72;;;7.07;62.70
20971;BME280;10644;48.834;10.088;2023-12-07T02:06:30;96989.25;;;7.14;63.03
20971;BME280;10644;48.834;10.088;2023-12-07T02:08:56;96977.19;;;7.19;62.77
20971;BME280;10644;48.834;10.088;2023-12-07T02:11:24;96977.84;;;7.24;62.26
20971;BME280;10644;48.834;10.088;2023-12-07T02:13:49;96976.06;;;7.26;62.21
20971;BME280;10644;48.834;10.088;2023-12-07T02:16:25;96982.09;;;7.24;62.17
20971;BME280;10644;48.834;10.088;2023-12-07T02:19:02;96977.28;;;7.16;61.94
20971;BME280;10644;48.834;10.088;2023-12-07T02:23:58;96985.94;;;7.12;62.09
20971;BME280;10644;48.834;10.088;2023-12-07T02:26:50;96990.00;;;7.16;62.81
20971;BME280;10644;48.834;10.088;2023-12-07T02:29:16;96984.06;;;7.17;62.51
20971;BME280;10644;48.834;10.088;2023-12-07T02:31:41;96992.22;;;7.25;62.81
20971;BME280;10644;48.834;10.088;2023-12-07T02:34:07;96985.34;;;7.27;62.25
20971;BME280;10644;48.834;10.088;2023-12-07T02:36:35;96985.31;;;7.29;62.55
20971;BME280;10644;48.834;10.088;2023-12-07T02:39:03;96993.66;;;7.32;62.28
20971;BME280;10644;48.834;10.088;2023-12-07T02:41:31;96986.88;;;7.33;62.55
20971;BME280;10644;48.834;10.088;2023-12-07T02:43:57;96982.59;;;7.33;62.76
20971;BME280;10644;48.834;10.088;2023-12-07T02:46:24;96981.81;;;7.31;62.44
20971;BME280;10644;48.834;10.088;2023-12-07T02:48:52;96983.59;;;7.29;61.94
20971;BME280;10644;48.834;10.088;2023-12-07T02:51:17;96993.66;;;7.32;61.97
20971;BME280;10644;48.834;10.088;2023-12-07T02:53:43;96990.41;;;7.29;62.21
20971;BME280;10644;48.834;10.088;2023-12-07T02:56:08;96986.03;;;7.32;61.69
20971;BME280;10644;48.834;10.088;2023-12-07T02:58:33;96993.56;;;7.35;62.02
20971;BME280;10644;48.834;10.088;2023-12-07T03:00:59;96992.78;;;7.33;61.66
20971;BME280;10644;48.834;10.088;2023-12-07T03:03:27;96991.84;;;7.36;61.92
20971;BME280;10644;48.834;10.088;2023-12-07T03:05:52;96993.66;;;7.32;62.25
20971;BME280;10644;48.834;10.088;2023-12-07T03:08:17;96994.25;;;7.17;62.43
20971;BME280;10644;48.834;10.088;2023-12-07T03:10:43;96994.13;;;7.20;62.17
20971;BME280;10644;48.834;10.088;2023-12-07T03:13:08;96984.81;;;7.19;62.25
20971;BME280;10644;48.834;10.088;2023-12-07T03:15:35;96994.59;;;7.30;62.70
20971;BME280;10644;48.834;10.088;2023-12-07T03:18:01;96993.88;;;7.26;61.92
20971;BME280;10644;48.834;10.088;2023-12-07T03:20:26;97000.31;;;7.36;62.40
20971;BME280;10644;48.834;10.088;2023-12-07T03:22:51;96996.66;;;7.43;62.21
20971;BME280;10644;48.834;10.088;2023-12-07T03:25:17;96999.09;;;7.46;62.40
20971;BME280;10644;48.834;10.088;2023-12-07T03:27:44;96993.13;;;7.47;62.02
20971;BME280;10644;48.834;10.088;2023-12-07T03:30:10;96995.47;;;7.52;62.49
20971;BME280;10644;48.834;10.088;2023-12-07T03:32:35;96998.31;;;7.44;62.24
20971;BME280;10644;48.834;10.088;2023-12-07T03:35:01;97004.19;;;7.46;62.54
20971;BME280;10644;48.834;10.088;2023-12-07T03:37:26;96995.72;;;7.46;62.48
20971;BME280;10644;48.834;10.088;2023-12-07T03:39:53;97005.69;;;7.52;61.94
20971;BME280;10644;48.834;10.088;2023-12-07T03:42:19;97004.88;;;7.51;61.73
20971;BME280;10644;48.834;10.088;2023-12-07T03:44:44;97005.69;;;7.52;62.00
20971;BME280;10644;48.834;10.088;2023-12-07T03:47:12;97005.72;;;7.50;61.85
20971;BME280;10644;48.834;10.088;2023-12-07T03:49:38;97009.13;;;7.51;61.58
20971;BME280;10644;48.834;10.088;2023-12-07T03:52:04;97010.91;;;7.49;61.43
20971;BME280;10644;48.834;10.088;2023-12-07T03:54:29;97009.16;;;7.49;61.13
20971;BME280;10644;48.834;10.088;2023-12-07T03:56:55;97011.00;;;7.46;61.39
20971;BME280;10644;48.834;10.088;2023-12-07T03:59:20;97015.22;;;7.47;61.60
20971;BME280;10644;48.834;10.088;2023-12-07T04:01:45;97007.66;;;7.45;61.05
20971;BME280;10644;48.834;10.088;2023-12-07T04:04:13;97012.06;;;7.40;61.60
20971;BME280;10644;48.834;10.088;2023-12-07T04:06:38;97004.34;;;7.42;61.41
20971;BME280;10644;48.834;10.088;2023-12-07T04:09:04;97012.75;;;7.45;61.74
20971;BME280;10644;48.834;10.088;2023-12-07T04:11:29;97003.31;;;7.47;61.10
20971;BME280;10644;48.834;10.088;2023-12-07T04:13:55;97011.63;;;7.52;61.58
20971;BME280;10644;48.834;10.088;2023-12-07T04:16:20;97009.16;;;7.49;61.42
20971;BME280;10644;48.834;10.088;2023-12-07T04:18:45;97011.63;;;7.52;61.56
20971;BME280;10644;48.834;10.088;2023-12-07T04:21:11;97021.81;;;7.52;61.13
20971;BME280;10644;48.834;10.088;2023-12-07T04:23:36;97009.06;;;7.52;61.01
20971;BME280;10644;48.834;10.088;2023-12-07T04:26:02;97014.94;;;7.54;61.31
20971;BME280;10644;48.834;10.088;2023-12-07T04:28:27;97016.66;;;7.54;60.80
20971;BME280;10644;48.834;10.088;2023-12-07T04:30:53;97013.50;;;7.47;61.41
20971;BME280;10644;48.834;10.088;2023-12-07T04:33:18;97016.94;;;7.46;60.96
20971;BME280;10644;48.834;10.088;2023-12-07T04:35:44;97020.47;;;7.42;61.15
20971;BME280;10644;48.834;10.088;2023-12-07T04:38:12;97025.47;;;7.45;61.31
20971;BME280;10644;48.834;10.088;2023-12-07T04:40:40;97026.13;;;7.50;61.34
20971;BME280;10644;48.834;10.088;2023-12-07T04:43:07;97026.06;;;7.52;61.35
20971;BME280;10644;48.834;10.088;2023-12-07T04:45:32;97016.81;;;7.49;61.14
20971;BME280;10644;48.834;10.088;2023-12-07T04:47:58;97026.78;;;7.55;61.57
20971;BME280;10644;48.834;10.088;2023-12-07T04:50:25;97030.94;;;7.58;61.20
20971;BME280;10644;48.834;10.088;2023-12-07T04:52:50;97038.44;;;7.62;61.34
20971;BME280;10644;48.834;10.088;2023-12-07T04:55:16;97037.53;;;7.63;60.91
20971;BME280;10644;48.834;10.088;2023-12-07T04:57:41;97029.41;;;7.54;61.01
20971;BME280;10644;48.834;10.088;2023-12-07T05:00:07;97032.31;;;7.43;61.12
20971;BME280;10644;48.834;10.088;2023-12-07T05:02:34;97027.22;;;7.43;61.59
20971;BME280;10644;48.834;10.088;2023-12-07T05:04:59;97033.13;;;7.45;61.71
20971;BME280;10644;48.834;10.088;2023-12-07T05:07:25;97030.56;;;7.45;61.22
20971;BME280;10644;48.834;10.088;2023-12-07T05:09:50;97028.13;;;7.42;61.17
20971;BME280;10644;48.834;10.088;2023-12-07T05:12:16;97028.28;;;7.38;61.04
20971;BME280;10644;48.834;10.088;2023-12-07T05:14:41;97021.41;;;7.17;61.27
20971;BME280;10644;48.834;10.088;2023-12-07T05:17:07;97035.75;;;7.19;61.63
20971;BME280;10644;48.834;10.088;2023-12-07T05:19:32;97028.75;;;7.26;61.84
20971;BME280;10644;48.834;10.088;2023-12-07T05:21:57;97026.91;;;7.29;61.68
20971;BME280;10644;48.834;10.088;2023-12-07T05:24:23;97032.28;;;7.22;61.38
20971;BME280;10644;48.834;10.088;2023-12-07T05:26:48;97037.28;;;7.00;61.93
20971;BME280;10644;48.834;10.088;2023-12-07T05:29:17;97040.59;;;7.02;61.92
20971;BME280;10644;48.834;10.088;2023-12-07T05:31:45;97033.41;;;7.13;61.95
20971;BME280;10644;48.834;10.088;2023-12-07T05:34:13;97029.91;;;7.17;61.42
20971;BME280;10644;48.834;10.088;2023-12-07T05:36:38;97036.19;;;7.07;61.85
20971;BME280;10644;48.834;10.088;2023-12-07T05:39:04;97030.94;;;6.87;61.70
20971;BME280;10644;48.834;10.088;2023-12-07T05:41:32;97041.97;;;6.88;62.52
20971;BME280;10644;48.834;10.088;2023-12-07T05:43:57;97040.59;;;6.78;62.48
20971;BME280;10644;48.834;10.088;2023-12-07T05:46:23;97041.66;;;6.72;62.06
20971;BME280;10644;48.834;10.088;2023-12-07T05:48:48;97041.38;;;6.80;61.92
20971;BME280;10644;48.834;10.088;2023-12-07T05:51:17;97041.03;;;6.90;61.66
20971;BME280;10644;48.834;10.088;2023-12-07T05:53:43;97034.38;;;6.86;61.97
20971;BME280;10644;48.834;10.088;2023-12-07T05:56:09;97040.56;;;6.79;61.53
20971;BME280;10644;48.834;10.088;2023-12-07T05:58:35;97045.47;;;6.84;61.48
20971;BME280;10644;48.834;10.088;2023-12-07T06:01:01;97035.09;;;6.90;61.20
20971;BME280;10644;48.834;10.088;2023-12-07T06:03:27;97042.72;;;6.90;61.09
20971;BME280;10644;48.834;10.088;2023-12-07T06:05:52;97038.31;;;6.95;61.11
20971;BME280;10644;48.834;10.088;2023-12-07T06:08:23;97041.22;;;6.84;60.84
20971;BME280;10644;48.834;10.088;2023-12-07T06:10:49;97041.22;;;6.60;60.67
20971;BME280;10644;48.834;10.088;2023-12-07T06:13:22;97033.75;;;6.55;60.92
20971;BME280;10644;48.834;10.088;2023-12-07T06:15:56;97050.47;;;6.62;61.91
20971;BME280;10644;48.834;10.088;2023-12-07T06:18:49;97037.31;;;6.74;61.07
20971;BME280;10644;48.834;10.088;2023-12-07T06:21:22;97047.63;;;6.45;60.18
20971;BME280;10644;48.834;10.088;2023-12-07T06:23:47;97031.22;;;6.54;61.41
20971;BME280;10644;48.834;10.088;2023-12-07T06:26:12;97042.88;;;6.61;60.63
20971;BME280;10644;48.834;10.088;2023-12-07T06:28:38;97058.56;;;6.73;60.69
20971;BME280;10644;48.834;10.088;2023-12-07T06:31:07;97054.38;;;6.72;60.64
20971;BME280;10644;48.834;10.088;2023-12-07T06:33:34;97055.13;;;6.74;60.47
20971;BME280;10644;48.834;10.088;2023-12-07T06:36:02;97055.09;;;6.76;60.61
20971;BME280;10644;48.834;10.088;2023-12-07T06:38:30;97051.63;;;6.78;60.48
20971;BME280;10644;48.834;10.088;2023-12-07T06:40:58;97054.81;;;6.83;60.26
20971;BME280;10644;48.834;10.088;2023-12-07T06:43:23;97056.50;;;6.84;60.09
20971;BME280;10644;48.834;10.088;2023-12-07T06:45:49;97058.78;;;6.92;60.24
20971;BME280;10644;48.834;10.088;2023-12-07T06:48:14;97059.56;;;6.94;59.72
20971;BME280;10644;48.834;10.088;2023-12-07T06:50:39;97051.09;;;6.93;59.85
20971;BME280;10644;48.834;10.088;2023-12-07T06:53:05;97050.38;;;6.90;59.75
20971;BME280;10644;48.834;10.088;2023-12-07T06:55:32;97055.41;;;6.91;60.10
20971;BME280;10644;48.834;10.088;2023-12-07T06:58:01;97060.59;;;6.88;60.47
20971;BME280;10644;48.834;10.088;2023-12-07T07:00:26;97042.41;;;6.74;60.23
20971;BME280;10644;48.834;10.088;2023-12-07T07:02:52;97049.88;;;6.79;59.96
20971;BME280;10644;48.834;10.088;2023-12-07T07:05:17;97045.69;;;6.78;59.81
20971;BME280;10644;48.834;10.088;2023-12-07T07:07:45;97045.66;;;6.79;60.25
20971;BME280;10644;48.834;10.088;2023-12-07T07:10:13;97060.91;;;6.79;59.94
20971;BME280;10644;48.834;10.088;2023-12-07T07:12:39;97060.19;;;6.76;59.83
20971;BME280;10644;48.834;10.088;2023-12-07T07:15:07;97072.06;;;6.75;59.96
20971;BME280;10644;48.834;10.088;2023-12-07T07:17:33;97052.00;;;6.66;59.65
20971;BME280;10644;48.834;10.088;2023-12-07T07:19:58;97063.91;;;6.66;59.94
20971;BME280;10644;48.834;10.088;2023-12-07T07:22:24;97064.16;;;6.58;59.27
20971;BME280;10644;48.834;10.088;2023-12-07T07:24:49;97074.38;;;6.57;59.46
20971;BME280;10644;48.834;10.088;2023-12-07T07:27:22;97076.09;;;6.56;59.94
20971;BME280;10644;48.834;10.088;2023-12-07T07:29:47;97072.75;;;6.54;59.63
20971;BME280;10644;48.834;10.088;2023-12-07T07:32:13;97076.19;;;6.53;59.03
20971;BME280;10644;48.834;10.088;2023-12-07T07:34:38;97065.28;;;6.50;59.35
20971;BME280;10644;48.834;10.088;2023-12-07T07:37:05;97076.34;;;6.49;59.07
20971;BME280;10644;48.834;10.088;2023-12-07T07:39:32;97077.53;;;6.37;59.36
20971;BME280;10644;48.834;10.088;2023-12-07T07:42:00;97064.00;;;6.37;59.34
20971;BME280;10644;48.834;10.088;2023-12-07T07:44:25;97065.72;;;6.36;59.87
20971;BME280;10644;48.834;10.088;2023-12-07T07:46:51;97076.66;;;6.38;60.31
20971;BME280;10644;48.834;10.088;2023-12-07T07:49:16;97073.31;;;6.38;60.47
20971;BME280;10644;48.834;10.088;2023-12-07T07:51:41;97073.25;;;6.39;60.05
20971;BME280;10644;48.834;10.088;2023-12-07T07:54:07;97072.38;;;6.40;60.17
20971;BME280;10644;48.834;10.088;2023-12-07T07:56:32;97071.50;;;6.41;59.96
20971;BME280;10644;48.834;10.088;2023-12-07T07:58:57;97067.31;;;6.39;59.98
20971;BME280;10644;48.834;10.088;2023-12-07T08:01:25;97054.72;;;6.36;59.98
20971;BME280;10644;48.834;10.088;2023-12-07T08:03:51;97071.56;;;6.38;60.44
20971;BME280;10644;48.834;10.088;2023-12-07T08:06:16;97078.22;;;6.42;59.76
20971;BME280;10644;48.834;10.088;2023-12-07T08:08:42;97069.69;;;6.45;59.91
20971;BME280;10644;48.834;10.088;2023-12-07T08:11:07;97072.19;;;6.46;59.99
20971;BME280;10644;48.834;10.088;2023-12-07T08:13:33;97068.66;;;6.50;60.69
20971;BME280;10644;48.834;10.088;2023-12-07T08:15:58;97057.50;;;6.54;61.70
20971;BME280;10644;48.834;10.088;2023-12-07T08:18:23;97081.53;;;6.72;61.17
20971;BME280;10644;48.834;10.088;2023-12-07T08:20:49;97072.78;;;6.79;60.95
20971;BME280;10644;48.834;10.088;2023-12-07T08:23:17;97072.75;;;6.80;61.18
20971;BME280;10644;48.834;10.088;2023-12-07T08:25:42;97064.91;;;6.86;61.40
20971;BME280;10644;48.834;10.088;2023-12-07T08:28:09;97072.25;;;6.95;60.64
20971;BME280;10644;48.834;10.088;2023-12-07T08:30:37;97069.50;;;7.01;60.92
20971;BME280;10644;48.834;10.088;2023-12-07T08:33:02;97064.28;;;7.04;60.47
20971;BME280;10644;48.834;10.088;2023-12-07T08:35:32;97068.94;;;7.16;60.61
20971;BME280;10644;48.834;10.088;2023-12-07T08:37:58;97064.41;;;7.26;60.01
20971;BME280;10644;48.834;10.088;2023-12-07T08:40:24;97067.53;;;7.32;59.63
20971;BME280;10644;48.834;10.088;2023-12-07T08:43:01;97070.59;;;7.42;60.32
20971;BME280;10644;48.834;10.088;2023-12-07T08:45:28;97070.38;;;7.48;60.09
20971;BME280;10644;48.834;10.088;2023-12-07T08:47:57;97088.16;;;7.49;59.75
20971;BME280;10644;48.834;10.088;2023-12-07T08:50:36;97076.75;;;7.59;60.30
20971;BME280;10644;48.834;10.088;2023-12-07T09:00:20;97061.88;;;7.93;59.45
20971;BME280;10644;48.834;10.088;2023-12-07T09:02:49;97092.47;;;8.16;58.83
20971;BME280;10644;48.834;10.088;2023-12-07T09:05:15;97075.44;;;8.17;58.83
20971;BME280;10644;48.834;10.088;2023-12-07T09:07:50;97074.28;;;8.25;58.47
20971;BME280;10644;48.834;10.088;2023-12-07T09:10:26;97077.59;;;8.27;58.78
20971;BME280;10644;48.834;10.088;2023-12-07T09:12:57;97084.44;;;8.48;58.76
20971;BME280;10644;48.834;10.088;2023-12-07T09:15:25;97074.94;;;8.52;58.77
20971;BME280;10644;48.834;10.088;2023-12-07T09:17:53;97069.28;;;8.65;58.18
20971;BME280;10644;48.834;10.088;2023-12-07T09:20:25;97071.78;;;8.67;58.19
20971;BME280;10644;48.834;10.088;2023-12-07T09:23:20;97065.41;;;8.55;57.64
20971;BME280;10644;48.834;10.088;2023-12-07T09:26:15;97078.13;;;8.57;57.63
20971;BME280;10644;48.834;10.088;2023-12-07T09:28:46;97069.88;;;8.50;57.15
20971;BME280;10644;48.834;10.088;2023-12-07T09:31:12;97064.66;;;8.53;58.17
20971;BME280;10644;48.834;10.088;2023-12-07T09:33:37;97061.72;;;8.62;57.61
20971;BME280;10644;48.834;10.088;2023-12-07T09:36:05;97065.06;;;8.84;58.03
20971;BME280;10644;48.834;10.088;2023-12-07T09:38:53;97067.00;;;8.99;58.08
20971;BME280;10644;48.834;10.088;2023-12-07T09:41:27;97072.69;;;9.26;57.80
20971;BME280;10644;48.834;10.088;2023-12-07T09:44:07;97060.47;;;9.32;57.06
20971;BME280;10644;48.834;10.088;2023-12-07T09:46:40;97061.47;;;9.48;56.96
20971;BME280;10644;48.834;10.088;2023-12-07T09:49:09;97060.38;;;9.54;56.99
20971;BME280;10644;48.834;10.088;2023-12-07T09:52:00;97050.75;;;9.59;56.05
20971;BME280;10644;48.834;10.088;2023-12-07T09:54:38;97020.56;;;9.48;56.13
20971;BME280;10644;48.834;10.088;2023-12-07T09:57:07;97014.84;;;9.23;54.78
20971;BME280;10644;48.834;10.088;2023-12-07T10:00:03;97014.25;;;8.98;56.46
20971;BME280;10644;48.834;10.088;2023-12-07T10:02:40;97018.44;;;9.19;56.40
20971;BME280;10644;48.834;10.088;2023-12-07T10:05:10;97010.06;;;9.16;56.62
20971;BME280;10644;48.834;10.088;2023-12-07T10:07:40;97004.44;;;9.46;56.16
20971;BME280;10644;48.834;10.088;2023-12-07T10:10:09;96995.81;;;9.67;55.67
20971;BME280;10644;48.834;10.088;2023-12-07T10:13:04;97006.44;;;9.95;56.04
20971;BME280;10644;48.834;10.088;2023-12-07T10:15:29;96998.56;;;10.18;55.80
20971;BME280;10644;48.834;10.088;2023-12-07T10:17:57;96996.03;;;10.35;54.41
20971;BME280;10644;48.834;10.088;2023-12-07T10:20:28;96991.97;;;10.48;54.52
20971;BME280;10644;48.834;10.088;2023-12-07T10:23:07;96997.97;;;10.30;52.82
20971;BME280;10644;48.834;10.088;2023-12-07T10:25:41;96995.53;;;9.73;54.17
20971;BME280;10644;48.834;10.088;2023-12-07T10:28:07;96993.88;;;9.91;53.60
20971;BME280;10644;48.834;10.088;2023-12-07T10:30:34;96983.03;;;10.04;54.06
20971;BME280;10644;48.834;10.088;2023-12-07T10:33:08;96987.34;;;10.02;53.69
20971;BME280;10644;48.834;10.088;2023-12-07T10:35:38;96977.56;;;9.75;53.89
20971;BME280;10644;48.834;10.088;2023-12-07T10:38:04;96981.31;;;9.68;54.22
20971;BME280;10644;48.834;10.088;2023-12-07T10:40:30;96985.88;;;9.61;54.77
20971;BME280;10644;48.834;10.088;2023-12-07T10:42:58;96969.41;;;10.04;54.47
20971;BME280;10644;48.834;10.088;2023-12-07T10:45:29;96960.94;;;10.54;53.02
20971;BME280;10644;48.834;10.088;2023-12-07T10:48:01;96956.47;;;10.92;53.13
20971;BME280;10644;48.834;10.088;2023-12-07T10:50:31;96950.41;;;11.25;52.60
20971;BME280;10644;48.834;10.088;2023-12-07T10:52:59;96951.94;;;11.45;51.65
20971;BME280;10644;48.834;10.088;2023-12-07T10:55:29;96955.13;;;11.17;51.26
20971;BME280;10644;48.834;10.088;2023-12-07T10:58:00;96943.78;;;11.21;51.68
20971;BME280;10644;48.834;10.088;2023-12-07T11:00:27;96937.72;;;10.74;51.26
20971;BME280;10644;48.834;10.088;2023-12-07T11:02:53;96924.75;;;10.60;52.74
20971;BME280;10644;48.834;10.088;2023-12-07T11:05:19;96930.78;;;10.76;51.22
20971;BME280;10644;48.834;10.088;2023-12-07T11:10:33;96925.09;;;11.67;50.18
20971;BME280;10644;48.834;10.088;2023-12-07T11:13:10;96919.38;;;11.78;48.33
20971;BME280;10644;48.834;10.088;2023-12-07T11:15:36;96919.00;;;11.37;49.05
20971;BME280;10644;48.834;10.088;2023-12-07T11:18:05;96914.19;;;11.31;50.12
20971;BME280;10644;48.834;10.088;2023-12-07T11:20:41;96916.88;;;11.76;49.99
20971;BME280;10644;48.834;10.088;2023-12-07T11:23:08;96916.03;;;11.91;49.63
20971;BME280;10644;48.834;10.088;2023-12-07T11:25:34;96921.63;;;12.13;48.43
20971;BME280;10644;48.834;10.088;2023-12-07T11:28:06;96927.13;;;12.07;48.40
20971;BME280;10644;48.834;10.088;2023-12-07T11:30:38;96925.16;;;11.81;48.51
20971;BME280;10644;48.834;10.088;2023-12-07T11:33:07;96931.09;;;11.51;49.30
20971;BME280;10644;48.834;10.088;2023-12-07T11:36:10;96921.91;;;11.93;50.40
20971;BME280;10644;48.834;10.088;2023-12-07T11:41:40;96923.97;;;12.61;48.98
20971;BME280;10644;48.834;10.088;2023-12-07T11:44:10;96917.03;;;12.91;48.13
20971;BME280;10644;48.834;10.088;2023-12-07T11:46:42;96903.19;;;13.08;48.05
20971;BME280;10644;48.834;10.088;2023-12-07T11:49:08;96906.97;;;13.16;47.29
20971;BME280;10644;48.834;10.088;2023-12-07T11:51:36;96896.94;;;13.26;47.35
20971;BME280;10644;48.834;10.088;2023-12-07T11:54:04;96896.03;;;12.99;45.70
20971;BME280;10644;48.834;10.088;2023-12-07T11:56:29;96886.56;;;12.99;46.76
20971;BME280;10644;48.834;10.088;2023-12-07T11:58:59;96874.88;;;13.22;46.83
20971;BME280;10644;48.834;10.088;2023-12-07T12:01:25;96869.25;;;13.43;45.88
20971;BME280;10644;48.834;10.088;2023-12-07T12:03:50;96879.31;;;13.60;45.10
20971;BME280;10644;48.834;10.088;2023-12-07T12:06:15;96865.09;;;13.81;45.44
20971;BME280;10644;48.834;10.088;2023-12-07T12:08:43;96858.56;;;14.02;44.43
20971;BME280;10644;48.834;10.088;2023-12-07T12:11:08;96841.81;;;14.09;43.70
20971;BME280;10644;48.834;10.088;2023-12-07T12:13:34;96853.63;;;13.99;43.51
20971;BME280;10644;48.834;10.088;2023-12-07T12:16:02;96852.09;;;13.70;43.76
20971;BME280;10644;48.834;10.088;2023-12-07T12:18:28;96850.94;;;13.48;43.43
20971;BME280;10644;48.834;10.088;2023-12-07T12:20:54;96859.19;;;13.26;43.46
20971;BME280;10644;48.834;10.088;2023-12-07T12:23:20;96858.81;;;13.18;43.51
20971;BME280;10644;48.834;10.088;2023-12-07T12:25:46;96852.66;;;12.93;43.99
20971;BME280;10644;48.834;10.088;2023-12-07T12:28:22;96841.28;;;12.83;46.43
20971;BME280;10644;48.834;10.088;2023-12-07T12:30:55;96831.44;;;12.89;45.52
20971;BME280;10644;48.834;10.088;2023-12-07T12:33:20;96836.78;;;12.86;45.43
20971;BME280;10644;48.834;10.088;2023-12-07T12:35:46;96838.44;;;12.87;45.07
20971;BME280;10644;48.834;10.088;2023-12-07T12:38:12;96833.38;;;12.86;45.61
20971;BME280;10644;48.834;10.088;2023-12-07T12:40:40;96826.88;;;12.66;44.96
20971;BME280;10644;48.834;10.088;2023-12-07T12:43:06;96813.84;;;12.55;44.66
20971;BME280;10644;48.834;10.088;2023-12-07T12:45:32;96815.47;;;12.42;45.50
20971;BME280;10644;48.834;10.088;2023-12-07T12:47:58;96800.84;;;12.15;45.66
20971;BME280;10644;48.834;10.088;2023-12-07T12:50:36;96806.03;;;12.29;46.83
20971;BME280;10644;48.834;10.088;2023-12-07T12:53:07;96809.16;;;12.34;47.33
20971;BME280;10644;48.834;10.088;2023-12-07T12:55:35;96801.88;;;12.40;47.56
20971;BME280;10644;48.834;10.088;2023-12-07T12:58:01;96799.44;;;12.39;46.63
20971;BME280;10644;48.834;10.088;2023-12-07T13:00:29;96800.50;;;12.49;46.25
20971;BME280;10644;48.834;10.088;2023-12-07T13:02:55;96785.41;;;12.58;45.75
20971;BME280;10644;48.834;10.088;2023-12-07T13:05:20;96774.53;;;12.67;45.52
20971;BME280;10644;48.834;10.088;2023-12-07T13:07:46;96785.09;;;12.63;45.55
20971;BME280;10644;48.834;10.088;2023-12-07T13:10:16;96788.41;;;12.51;45.48
20971;BME280;10644;48.834;10.088;2023-12-07T13:12:41;96785.75;;;12.52;45.18
20971;BME280;10644;48.834;10.088;2023-12-07T13:15:10;96781.88;;;12.45;45.62